メインページ
METAR-TAF:

METAR-TAF

空港 :

ニューオーリンズ, ルイジアナ州, アメリカ合衆国

ルイ・アームストロング・ニューオーリンズ国際空港

緯度: 29-59-34N, 経度: 090-15-03W, 海抜: 1m

現時点の気象観測

当レポートは7分前の11:53(UTC)に作成
北/北西の風 7kt
気温 18°C
湿度 77%
気圧 1013 hPa
視程: 16.1km
高度2100ftの曇り

METAR: KMSY 231153Z 33007KT 10SM OVC021 18/14 A2991 RMK AO2 SLP132 60000 70005 T01830144 10206 20183 53013

時間: 07:00 (12:00 UTC)

予報

当レポートは35分前の11:25(UTC)に作成
予報は23日の 12時(UTC)から 24日の 12時(UTC)まで有効
北/北西の風 10kt
視程: 10km
高度1500ftの雲はほとんどない
高度2500ftの千切れ雲あり
高度8000ftの千切れ雲あり
近辺でにわか雨
23日の 1600時(UTC)から
北/北西の風 11kt、最大24ktの突風を伴う
視程: 10km
高度2000ftの千切れ雲あり
23日の 1900時(UTC)から
北/北西の風 11kt、最大24ktの突風を伴う
視程: 10km
高度3500ftの雲は散在している
24日の 0200時(UTC)から
の風 13kt、最大24ktの突風を伴う
視程: 10km
高度14000ftの雲はほとんどない
24日の 0600時(UTC)から
北/北西の風 8kt
視程: 10km
高度25000ftの雲はほとんどない

TAF: KMSY 231125Z 2312/2412 34010KT P6SM VCSH FEW015 BKN025 BKN080 FM231600 34011G24KT P6SM BKN020 FM231900 33011G24KT P6SM SCT035 FM240200 35013G24KT P6SM FEW140 FM240600 34008KT P6SM FEW250

4,000以上の空港の気象観測と天気予報(METAR報とTAF報)

利用可能な観測所は地図上に黄色い丸と赤い丸で示す。

丸の上にカーソルを重ねると観測所名を参照できる。

次にクリックすると気象観測と天気予報を参照できる。

マップの切り替え:黒色「×」印の緑ボタンをクリックして拡大、「-」印の緑ボタンをクリックして縮小、緑色の三角印をクリックして隣りの地図に切り替え


METAR-TAF: